Time;durP1;ratioP1;P1;durP2;ratioP2;P2;SDS_P1;SDS_P2;PMS_P1;PMS_P2;Temp;Humidity;BMP_temperature;BMP_pressure;BME280_temperature;BME280_humidity;BME280_pressure;Samples;Min_cycle;Max_cycle;Signal;HPM_P1;HPM_P2
2023/06/07 00:01:12;;;;;;;;;;;21.00;48.50;;;;;;5051615;28;19919;-66
2023/06/07 00:03:38;;;;;;;;;;;20.90;48.60;;;;;;5051795;28;19912;-67
2023/06/07 00:06:05;;;;;;;;;;;20.90;49.00;;;;;;5051630;28;19913;-66
2023/06/07 00:08:31;;;;;;;;;;;20.80;49.00;;;;;;5051676;28;19916;-67
2023/06/07 00:10:56;;;;;;;;;;;20.70;49.10;;;;;;5051116;28;19939;-66
2023/06/07 00:13:22;;;;;;;;;;;20.50;50.30;;;;;;5051647;28;19970;-67
2023/06/07 00:15:47;;;;;;;;;;;20.30;51.70;;;;;;5051641;28;19963;-66
2023/06/07 00:18:15;;;;;;;;;;;20.10;53.80;;;;;;5051665;28;19917;-66
2023/06/07 00:20:45;;;;;;;;;;;19.90;55.40;;;;;;5050946;28;20284;-66
2023/06/07 00:23:13;;;;;;;;;;;19.70;56.80;;;;;;5050233;28;19971;-65
2023/06/07 00:25:39;;;;;;;;;;;19.60;58.00;;;;;;5051522;28;19913;-65
2023/06/07 00:28:05;;;;;;;;;;;19.40;59.90;;;;;;5051360;28;19913;-65
2023/06/07 00:30:30;;;;;;;;;;;19.30;61.30;;;;;;5051343;28;19919;-67
2023/06/07 00:32:56;;;;;;;;;;;19.20;62.20;;;;;;5051062;28;19913;-67
2023/06/07 00:35:21;;;;;;;;;;;19.10;62.90;;;;;;5062476;28;19920;-66
2023/06/07 00:37:46;;;;;;;;;;;19.00;63.40;;;;;;5071390;28;19913;-66
2023/06/07 00:40:12;;;;;;;;;;;18.90;64.00;;;;;;5058073;28;19913;-66
2023/06/07 00:42:37;;;;;;;;;;;18.90;64.80;;;;;;5051061;28;20284;-66
2023/06/07 00:45:03;;;;;;;;;;;19.00;65.30;;;;;;5033640;28;19943;-65
2023/06/07 00:47:29;;;;;;;;;;;19.00;65.60;;;;;;5051083;28;19920;-67
2023/06/07 00:49:54;;;;;;;;;;;19.00;65.80;;;;;;5051484;28;20019;-65
2023/06/07 00:52:21;;;;;;;;;;;19.00;66.10;;;;;;5050268;28;20068;-66
2023/06/07 00:54:47;;;;;;;;;;;18.90;66.40;;;;;;5050973;28;19927;-66
2023/06/07 00:57:13;;;;;;;;;;;19.00;66.50;;;;;;5051025;28;20288;-66
2023/06/07 00:59:38;;;;;;;;;;;18.90;66.50;;;;;;5051776;28;19988;-66
2023/06/07 01:02:04;;;;;;;;;;;18.90;66.50;;;;;;5051628;28;20288;-66
2023/06/07 01:04:30;;;;;;;;;;;18.90;66.70;;;;;;5051782;28;19921;-66
2023/06/07 01:06:56;;;;;;;;;;;18.90;66.80;;;;;;5051214;28;19920;-65
2023/06/07 01:09:22;;;;;;;;;;;18.80;67.10;;;;;;5050127;28;19917;-66
2023/06/07 01:11:49;;;;;;;;;;;18.80;67.20;;;;;;5050880;28;19968;-66
2023/06/07 01:14:15;;;;;;;;;;;18.90;67.30;;;;;;5051289;28;20366;-65
2023/06/07 01:16:44;;;;;;;;;;;18.90;67.10;;;;;;5051239;28;19971;-65
2023/06/07 01:19:18;;;;;;;;;;;18.90;67.30;;;;;;5051036;28;19919;-65
2023/06/07 01:21:45;;;;;;;;;;;18.90;67.50;;;;;;5050129;28;20015;-66
2023/06/07 01:24:10;;;;;;;;;;;18.90;67.70;;;;;;5055021;28;19919;-66
2023/06/07 01:26:36;;;;;;;;;;;18.90;67.60;;;;;;5054804;28;19913;-65
2023/06/07 01:29:05;;;;;;;;;;;18.90;67.50;;;;;;5055010;28;19938;-66
2023/06/07 01:31:35;;;;;;;;;;;18.80;67.40;;;;;;5054336;28;19912;-65
2023/06/07 01:34:01;;;;;;;;;;;18.80;67.50;;;;;;5060904;28;19963;-66
2023/06/07 01:36:27;;;;;;;;;;;18.80;67.30;;;;;;5065098;28;20003;-66
2023/06/07 01:38:53;;;;;;;;;;;18.70;67.40;;;;;;5054569;28;19944;-66
2023/06/07 01:41:19;;;;;;;;;;;18.70;67.20;;;;;;5054066;28;19975;-65
2023/06/07 01:43:44;;;;;;;;;;;18.60;67.20;;;;;;5054093;28;20336;-65
2023/06/07 01:46:10;;;;;;;;;;;18.60;67.20;;;;;;5054192;28;19963;-67
2023/06/07 01:48:36;;;;;;;;;;;18.50;67.50;;;;;;5054207;28;20359;-65
2023/06/07 01:51:01;;;;;;;;;;;18.50;67.70;;;;;;5053580;28;19924;-65
2023/06/07 01:53:28;;;;;;;;;;;18.50;67.80;;;;;;5053690;28;19917;-66
2023/06/07 01:55:58;;;;;;;;;;;18.50;68.00;;;;;;5053933;28;19982;-66
2023/06/07 01:58:34;;;;;;;;;;;18.50;67.80;;;;;;5054150;28;20340;-65
2023/06/07 02:01:23;;;;;;;;;;;18.50;67.50;;;;;;5053812;28;19956;-66
2023/06/07 02:03:51;;;;;;;;;;;18.40;68.00;;;;;;5053931;28;19913;-66
2023/06/07 02:06:20;;;;;;;;;;;18.40;68.20;;;;;;5053835;28;19917;-66
2023/06/07 02:08:48;;;;;;;;;;;18.50;68.00;;;;;;5053263;28;20372;-66
2023/06/07 02:11:16;;;;;;;;;;;18.50;68.20;;;;;;5053771;28;19913;-66
2023/06/07 02:13:42;;;;;;;;;;;18.40;68.00;;;;;;5053805;28;19924;-65
2023/06/07 02:16:07;;;;;;;;;;;18.40;68.00;;;;;;5053240;28;20288;-66
2023/06/07 02:18:37;;;;;;;;;;;18.40;68.10;;;;;;5053597;28;20253;-67
2023/06/07 02:21:02;;;;;;;;;;;18.30;68.20;;;;;;5053565;28;20334;-66
2023/06/07 02:23:28;;;;;;;;;;;18.30;68.20;;;;;;5037473;28;19913;-66
2023/06/07 02:25:53;;;;;;;;;;;18.30;68.30;;;;;;5033568;28;19913;-66
2023/06/07 02:28:19;;;;;;;;;;;18.30;68.30;;;;;;5033780;28;19913;-65
2023/06/07 02:30:44;;;;;;;;;;;18.20;68.30;;;;;;5033662;28;19913;-65
2023/06/07 02:33:13;;;;;;;;;;;18.10;68.30;;;;;;5032971;28;19913;-65
2023/06/07 02:35:40;;;;;;;;;;;18.10;68.40;;;;;;5055888;28;20400;-65
2023/06/07 02:38:06;;;;;;;;;;;18.00;68.60;;;;;;5073264;28;19912;-65
2023/06/07 02:40:32;;;;;;;;;;;18.10;68.60;;;;;;5073150;28;19920;-65
2023/06/07 02:42:58;;;;;;;;;;;18.00;68.60;;;;;;5073074;28;19923;-65
2023/06/07 02:45:23;;;;;;;;;;;18.00;68.50;;;;;;5073093;28;19912;-65
2023/06/07 02:47:50;;;;;;;;;;;17.90;68.50;;;;;;5072761;28;19912;-66
2023/06/07 02:50:16;;;;;;;;;;;17.90;68.70;;;;;;5073158;28;19912;-65
2023/06/07 02:52:44;;;;;;;;;;;17.90;69.00;;;;;;5071872;28;19912;-65
2023/06/07 02:55:09;;;;;;;;;;;17.90;69.00;;;;;;5072701;28;19970;-65
2023/06/07 02:57:35;;;;;;;;;;;18.00;68.80;;;;;;5060505;28;19975;-65
2023/06/07 03:00:02;;;;;;;;;;;17.90;68.70;;;;;;5052443;28;19970;-66
2023/06/07 03:02:27;;;;;;;;;;;17.80;68.60;;;;;;5052439;28;20364;-65
2023/06/07 03:04:56;;;;;;;;;;;17.80;68.70;;;;;;5052381;28;19924;-65
2023/06/07 03:07:22;;;;;;;;;;;17.80;68.90;;;;;;5052647;28;19987;-68
2023/06/07 03:09:47;;;;;;;;;;;17.80;68.90;;;;;;5054082;28;20452;-68
2023/06/07 03:12:13;;;;;;;;;;;17.80;68.90;;;;;;5056791;28;20388;-68
2023/06/07 03:14:41;;;;;;;;;;;17.80;69.00;;;;;;5056574;28;19920;-68
2023/06/07 03:17:08;;;;;;;;;;;17.80;69.10;;;;;;5056970;28;20368;-68
2023/06/07 03:19:34;;;;;;;;;;;17.80;69.10;;;;;;5056705;28;19913;-68
2023/06/07 03:22:00;;;;;;;;;;;17.80;69.20;;;;;;5056456;28;19916;-67
2023/06/07 03:24:28;;;;;;;;;;;17.80;69.20;;;;;;5055857;28;20420;-68
2023/06/07 03:26:53;;;;;;;;;;;17.80;69.20;;;;;;5055572;28;19917;-67
2023/06/07 03:29:19;;;;;;;;;;;17.80;69.20;;;;;;5053668;28;19913;-67
2023/06/07 03:31:44;;;;;;;;;;;17.80;69.10;;;;;;5035131;28;19924;-66
2023/06/07 03:34:10;;;;;;;;;;;17.80;69.10;;;;;;5060774;28;19917;-65
2023/06/07 03:36:35;;;;;;;;;;;17.80;69.10;;;;;;5061741;28;20379;-66
2023/06/07 03:39:01;;;;;;;;;;;17.80;69.20;;;;;;5051044;28;19916;-66
2023/06/07 03:41:26;;;;;;;;;;;17.80;69.20;;;;;;5052438;28;20003;-66
2023/06/07 03:43:52;;;;;;;;;;;17.80;69.20;;;;;;5051772;28;20011;-66
2023/06/07 03:46:17;;;;;;;;;;;17.70;69.10;;;;;;5050601;28;19917;-67
2023/06/07 03:48:43;;;;;;;;;;;17.70;69.00;;;;;;5052488;28;20417;-67
2023/06/07 03:51:08;;;;;;;;;;;17.60;69.10;;;;;;5052277;28;19917;-67
2023/06/07 03:53:34;;;;;;;;;;;17.60;69.20;;;;;;5052226;28;19920;-67
2023/06/07 03:56:00;;;;;;;;;;;17.50;69.30;;;;;;5052479;28;20350;-66
2023/06/07 03:58:26;;;;;;;;;;;17.50;69.50;;;;;;5052585;28;19913;-66
2023/06/07 04:00:51;;;;;;;;;;;17.60;69.60;;;;;;5052675;28;20532;-66
2023/06/07 04:03:24;;;;;;;;;;;17.60;69.70;;;;;;5052609;28;19913;-67
2023/06/07 04:05:50;;;;;;;;;;;17.60;69.50;;;;;;5052169;28;20008;-67
2023/06/07 04:08:15;;;;;;;;;;;17.60;69.60;;;;;;5052730;28;20019;-67
2023/06/07 04:10:41;;;;;;;;;;;17.60;69.50;;;;;;5052226;28;20408;-67
2023/06/07 04:13:06;;;;;;;;;;;17.60;69.50;;;;;;5036314;28;19917;-67
2023/06/07 04:15:32;;;;;;;;;;;17.60;69.50;;;;;;5032617;28;20380;-67
2023/06/07 04:17:57;;;;;;;;;;;17.60;69.50;;;;;;5014832;28;19979;-67
2023/06/07 04:20:23;;;;;;;;;;;17.60;69.60;;;;;;5032385;28;20390;-67
2023/06/07 04:22:51;;;;;;;;;;;17.50;69.60;;;;;;5031892;28;19998;-66
2023/06/07 04:25:16;;;;;;;;;;;17.50;69.80;;;;;;5031961;28;19913;-65
2023/06/07 04:27:45;;;;;;;;;;;17.50;69.90;;;;;;5031601;28;19913;-65
2023/06/07 04:30:10;;;;;;;;;;;17.50;69.50;;;;;;5032033;28;19987;-65
2023/06/07 04:32:37;;;;;;;;;;;17.50;69.60;;;;;;5047207;28;19917;-65
2023/06/07 04:35:03;;;;;;;;;;;17.40;69.80;;;;;;5051325;28;19921;-64
2023/06/07 04:37:31;;;;;;;;;;;17.50;70.00;;;;;;5067770;28;19912;-65
2023/06/07 04:39:56;;;;;;;;;;;17.50;70.10;;;;;;5066650;28;19917;-64
2023/06/07 04:42:23;;;;;;;;;;;17.50;70.00;;;;;;5033795;28;19923;-65
2023/06/07 04:44:50;;;;;;;;;;;17.50;69.90;;;;;;5051609;28;19958;-66
2023/06/07 04:47:17;;;;;;;;;;;17.50;70.20;;;;;;5051800;28;20012;-65
2023/06/07 04:49:43;;;;;;;;;;;17.50;70.40;;;;;;5051059;28;19913;-65
2023/06/07 04:52:08;;;;;;;;;;;17.50;70.40;;;;;;5052070;28;19917;-65
2023/06/07 04:54:36;;;;;;;;;;;17.50;70.20;;;;;;5051465;28;19970;-66
2023/06/07 04:57:02;;;;;;;;;;;17.60;70.50;;;;;;5054482;28;19959;-66
2023/06/07 04:59:29;;;;;;;;;;;17.60;70.80;;;;;;5056382;28;19909;-66
2023/06/07 05:01:55;;;;;;;;;;;17.70;70.80;;;;;;5053713;28;20027;-66
2023/06/07 05:04:21;;;;;;;;;;;17.80;71.00;;;;;;5055738;28;19960;-67
2023/06/07 05:06:46;;;;;;;;;;;17.80;71.00;;;;;;5054882;28;19928;-66
2023/06/07 05:09:11;;;;;;;;;;;17.90;70.90;;;;;;5059546;28;19919;-66
2023/06/07 05:11:37;;;;;;;;;;;17.90;71.00;;;;;;5055574;28;19916;-66
2023/06/07 05:14:02;;;;;;;;;;;18.10;70.80;;;;;;5055883;28;19917;-67
2023/06/07 05:16:32;;;;;;;;;;;18.10;70.90;;;;;;5056043;28;19913;-67
2023/06/07 05:18:57;;;;;;;;;;;18.10;70.30;;;;;;5056171;28;20387;-67
2023/06/07 05:21:23;;;;;;;;;;;18.10;70.50;;;;;;5055957;28;19913;-67
2023/06/07 05:23:49;;;;;;;;;;;18.10;70.50;;;;;;5056142;28;19919;-68
2023/06/07 05:26:15;;;;;;;;;;;18.10;70.60;;;;;;5055960;28;19912;-68
2023/06/07 05:28:40;;;;;;;;;;;18.20;70.50;;;;;;5056268;28;20288;-68
2023/06/07 05:31:06;;;;;;;;;;;18.20;70.40;;;;;;5056713;28;19952;-68
2023/06/07 05:33:31;;;;;;;;;;;18.20;70.60;;;;;;5057099;28;19924;-68
2023/06/07 05:35:57;;;;;;;;;;;18.20;70.80;;;;;;5061569;28;19917;-69
2023/06/07 05:38:22;;;;;;;;;;;18.30;70.90;;;;;;5080535;28;19912;-66
2023/06/07 05:40:48;;;;;;;;;;;18.40;71.10;;;;;;5054446;28;19999;-66
2023/06/07 05:43:13;;;;;;;;;;;18.50;71.20;;;;;;5055294;28;19927;-69
2023/06/07 05:45:40;;;;;;;;;;;18.50;71.20;;;;;;5056660;28;19939;-69
2023/06/07 05:48:05;;;;;;;;;;;18.60;71.10;;;;;;5041939;28;20357;-68
2023/06/07 05:50:31;;;;;;;;;;;18.70;71.00;;;;;;5041715;28;19935;-69
2023/06/07 05:52:57;;;;;;;;;;;18.70;70.80;;;;;;5056210;28;19959;-69
2023/06/07 05:55:27;;;;;;;;;;;18.70;70.90;;;;;;5056764;28;20338;-69
2023/06/07 05:57:53;;;;;;;;;;;18.80;71.00;;;;;;5022807;28;19913;-69
2023/06/07 06:00:18;;;;;;;;;;;18.80;71.00;;;;;;5055781;28;19970;-69
2023/06/07 06:02:47;;;;;;;;;;;18.90;70.90;;;;;;5053914;28;20296;-69
2023/06/07 06:05:12;;;;;;;;;;;19.00;71.10;;;;;;5054884;28;19939;-69
2023/06/07 06:07:38;;;;;;;;;;;19.10;71.30;;;;;;5053393;28;19913;-69
2023/06/07 06:10:06;;;;;;;;;;;19.20;71.20;;;;;;5054010;28;19944;-69
2023/06/07 06:12:32;;;;;;;;;;;19.30;71.30;;;;;;5049618;28;19952;-69
2023/06/07 06:14:58;;;;;;;;;;;19.30;71.00;;;;;;5054707;28;20446;-69
2023/06/07 06:17:23;;;;;;;;;;;19.40;71.00;;;;;;5054211;28;19962;-69
2023/06/07 06:19:49;;;;;;;;;;;19.50;71.10;;;;;;5054760;28;20294;-69
2023/06/07 06:22:14;;;;;;;;;;;19.50;71.00;;;;;;5041099;28;20353;-69
2023/06/07 06:24:40;;;;;;;;;;;19.60;71.10;;;;;;5055534;28;19967;-69
2023/06/07 06:27:08;;;;;;;;;;;19.60;70.90;;;;;;5057226;28;20430;-69
2023/06/07 06:29:34;;;;;;;;;;;19.60;70.70;;;;;;5056892;28;20353;-69
2023/06/07 06:31:59;;;;;;;;;;;19.60;70.70;;;;;;5057747;28;19913;-69
2023/06/07 06:34:25;;;;;;;;;;;19.50;70.60;;;;;;5060062;28;19917;-68
2023/06/07 06:36:50;;;;;;;;;;;19.50;70.70;;;;;;5064430;28;19936;-68
2023/06/07 06:39:16;;;;;;;;;;;19.50;70.60;;;;;;5057436;28;20387;-68
2023/06/07 06:41:41;;;;;;;;;;;19.50;70.70;;;;;;5056920;28;19921;-69
2023/06/07 06:44:07;;;;;;;;;;;19.50;70.80;;;;;;5056429;28;19984;-69
2023/06/07 06:46:32;;;;;;;;;;;19.50;70.70;;;;;;5056521;28;19991;-69
2023/06/07 06:48:58;;;;;;;;;;;19.60;70.80;;;;;;5038145;28;19913;-69
2023/06/07 06:51:23;;;;;;;;;;;19.60;70.80;;;;;;5056140;28;20424;-69
2023/06/07 06:53:49;;;;;;;;;;;19.60;70.60;;;;;;5056239;28;19997;-69
2023/06/07 06:56:14;;;;;;;;;;;19.70;70.50;;;;;;5056022;28;19952;-69
2023/06/07 06:58:40;;;;;;;;;;;19.70;70.30;;;;;;5056892;28;19964;-69
2023/06/07 07:01:07;;;;;;;;;;;19.60;70.30;;;;;;5057185;28;20347;-69
2023/06/07 07:03:32;;;;;;;;;;;19.50;70.10;;;;;;5056083;28;20011;-69
2023/06/07 07:06:00;;;;;;;;;;;19.40;70.00;;;;;;5068883;28;19955;-69
2023/06/07 07:08:26;;;;;;;;;;;19.30;70.00;;;;;;5053966;28;20272;-68
2023/06/07 07:10:51;;;;;;;;;;;19.20;70.20;;;;;;5054394;28;19916;-68
2023/06/07 07:13:17;;;;;;;;;;;19.20;70.50;;;;;;5054025;28;19966;-67
2023/06/07 07:15:43;;;;;;;;;;;19.10;70.60;;;;;;5053632;28;20371;-67
2023/06/07 07:18:08;;;;;;;;;;;19.10;70.40;;;;;;5053296;28;19924;-66
2023/06/07 07:20:34;;;;;;;;;;;19.00;70.00;;;;;;5053034;28;19913;-66
2023/06/07 07:23:01;;;;;;;;;;;18.80;69.70;;;;;;5053416;28;20249;-66
2023/06/07 07:25:27;;;;;;;;;;;18.70;69.90;;;;;;5048175;28;19916;-66
2023/06/07 07:27:53;;;;;;;;;;;18.60;70.10;;;;;;5050694;28;20012;-66
2023/06/07 07:30:18;;;;;;;;;;;18.50;70.30;;;;;;5052755;28;20368;-65
2023/06/07 07:32:44;;;;;;;;;;;18.50;70.30;;;;;;5049887;28;20287;-66
2023/06/07 07:35:10;;;;;;;;;;;18.50;70.30;;;;;;5052282;28;20346;-65
2023/06/07 07:37:35;;;;;;;;;;;18.40;70.40;;;;;;5060101;28;19927;-64
2023/06/07 07:40:01;;;;;;;;;;;18.40;70.30;;;;;;5048527;28;20007;-65
2023/06/07 07:42:26;;;;;;;;;;;18.30;70.20;;;;;;5051098;28;20337;-65
2023/06/07 07:44:52;;;;;;;;;;;18.30;70.40;;;;;;5040576;28;19921;-66
2023/06/07 07:47:18;;;;;;;;;;;18.20;70.60;;;;;;5044655;28;20007;-65
2023/06/07 07:49:43;;;;;;;;;;;18.20;70.80;;;;;;5051208;28;19917;-65
2023/06/07 07:52:08;;;;;;;;;;;18.20;71.10;;;;;;5049387;28;20006;-65
2023/06/07 07:54:35;;;;;;;;;;;18.30;71.40;;;;;;5053253;28;20393;-65
2023/06/07 07:57:01;;;;;;;;;;;18.30;71.50;;;;;;5053495;28;20314;-65
2023/06/07 07:59:26;;;;;;;;;;;18.40;71.50;;;;;;5052653;28;19912;-66
2023/06/07 08:01:52;;;;;;;;;;;18.50;71.60;;;;;;5052321;28;20448;-65
2023/06/07 08:04:18;;;;;;;;;;;18.70;71.70;;;;;;5035596;28;19913;-65
2023/06/07 08:06:45;;;;;;;;;;;18.70;71.80;;;;;;5052355;28;19924;-65
2023/06/07 08:09:10;;;;;;;;;;;18.90;71.80;;;;;;5052453;28;20427;-65
2023/06/07 08:11:36;;;;;;;;;;;19.10;71.60;;;;;;5052215;28;19959;-64
2023/06/07 08:14:02;;;;;;;;;;;19.20;71.50;;;;;;5051625;28;20383;-66
2023/06/07 08:16:27;;;;;;;;;;;19.30;71.70;;;;;;5052114;28;19917;-66
2023/06/07 08:18:56;;;;;;;;;;;19.50;71.80;;;;;;5052603;28;19912;-67
2023/06/07 08:21:22;;;;;;;;;;;19.50;71.60;;;;;;5055462;28;19928;-66
2023/06/07 08:23:48;;;;;;;;;;;19.60;71.40;;;;;;5052003;28;19916;-66
2023/06/07 08:26:15;;;;;;;;;;;19.60;71.60;;;;;;5051924;28;20375;-66
2023/06/07 08:28:41;;;;;;;;;;;19.70;71.80;;;;;;5048873;28;19921;-66
2023/06/07 08:31:06;;;;;;;;;;;19.80;71.30;;;;;;5053367;28;19924;-67
2023/06/07 08:33:32;;;;;;;;;;;19.80;71.30;;;;;;5056773;28;19920;-67
2023/06/07 08:35:57;;;;;;;;;;;19.80;71.00;;;;;;5062131;28;20377;-67
2023/06/07 08:38:23;;;;;;;;;;;19.80;71.10;;;;;;5063552;28;20283;-67
2023/06/07 08:40:48;;;;;;;;;;;19.90;70.90;;;;;;5057827;28;19948;-67
2023/06/07 08:43:14;;;;;;;;;;;19.90;71.10;;;;;;5057668;28;20353;-68
2023/06/07 08:45:39;;;;;;;;;;;20.00;71.10;;;;;;5056462;28;19927;-68
2023/06/07 08:48:06;;;;;;;;;;;20.00;71.00;;;;;;5057451;28;19913;-68
2023/06/07 08:50:32;;;;;;;;;;;20.00;71.10;;;;;;5043440;28;19917;-68
2023/06/07 08:52:59;;;;;;;;;;;20.10;70.90;;;;;;5041170;28;19996;-68
2023/06/07 08:55:25;;;;;;;;;;;20.10;71.30;;;;;;5056463;28;20294;-68
2023/06/07 08:57:52;;;;;;;;;;;20.20;71.50;;;;;;5056353;28;19916;-68
2023/06/07 09:00:24;;;;;;;;;;;20.30;71.60;;;;;;5055213;28;19928;-69
2023/06/07 09:02:51;;;;;;;;;;;20.30;71.60;;;;;;5042205;28;19917;-67
2023/06/07 09:05:20;;;;;;;;;;;20.40;71.60;;;;;;5055996;28;20288;-68
2023/06/07 09:07:46;;;;;;;;;;;20.50;71.90;;;;;;5057152;28;19909;-68
2023/06/07 09:10:13;;;;;;;;;;;20.70;72.10;;;;;;5055742;28;19927;-68
2023/06/07 09:12:39;;;;;;;;;;;21.00;72.30;;;;;;5056012;28;20010;-68
2023/06/07 09:15:06;;;;;;;;;;;21.20;72.60;;;;;;5056437;28;19921;-69
2023/06/07 09:17:51;;;;;;;;;;;21.60;73.40;;;;;;5056996;28;20311;-68
2023/06/07 09:20:23;;;;;;;;;;;22.10;73.90;;;;;;5056261;28;19921;-68
2023/06/07 09:22:59;;;;;;;;;;;22.80;74.80;;;;;;5061871;28;20307;-69
2023/06/07 09:25:25;;;;;;;;;;;23.70;75.40;;;;;;5037942;28;20000;-69
2023/06/07 09:27:51;;;;;;;;;;;24.70;74.50;;;;;;5047967;28;19939;-69
2023/06/07 09:30:18;;;;;;;;;;;25.40;73.60;;;;;;5056214;28;19916;-69
2023/06/07 09:32:43;;;;;;;;;;;26.10;72.70;;;;;;5041942;28;19999;-70
2023/06/07 09:35:16;;;;;;;;;;;26.70;72.10;;;;;;5057668;28;19971;-71
2023/06/07 09:37:45;;;;;;;;;;;27.20;71.20;;;;;;5059282;28;19935;-70
2023/06/07 09:40:13;;;;;;;;;;;27.60;70.60;;;;;;5055007;28;19913;-70
2023/06/07 09:42:39;;;;;;;;;;;28.00;69.70;;;;;;5053207;28;19970;-70
2023/06/07 09:45:08;;;;;;;;;;;28.20;69.10;;;;;;5053299;28;20376;-69
2023/06/07 09:47:34;;;;;;;;;;;28.40;69.30;;;;;;5052897;28;19959;-69
2023/06/07 09:50:09;;;;;;;;;;;28.80;69.40;;;;;;5053130;28;20384;-69
2023/06/07 09:52:35;;;;;;;;;;;29.00;68.90;;;;;;5050213;28;19912;-69
2023/06/07 09:55:02;;;;;;;;;;;29.30;69.10;;;;;;5053930;28;19921;-68
2023/06/07 09:57:28;;;;;;;;;;;29.50;68.20;;;;;;5072302;28;19909;-69
2023/06/07 09:59:58;;;;;;;;;;;29.50;67.90;;;;;;5073697;28;19916;-69
2023/06/07 10:02:27;;;;;;;;;;;29.80;68.70;;;;;;5058153;28;19916;-68
2023/06/07 10:04:55;;;;;;;;;;;29.80;67.60;;;;;;5053428;28;20397;-68
2023/06/07 10:07:21;;;;;;;;;;;30.10;68.90;;;;;;5052653;28;19996;-69
2023/06/07 10:09:52;;;;;;;;;;;30.60;70.00;;;;;;5053523;28;19921;-68
2023/06/07 10:12:19;;;;;;;;;;;31.20;69.60;;;;;;5051917;28;20296;-68
2023/06/07 10:14:45;;;;;;;;;;;31.50;68.70;;;;;;5053853;28;19924;-68
2023/06/07 10:17:13;;;;;;;;;;;31.70;67.60;;;;;;5052027;28;20238;-68
2023/06/07 10:19:43;;;;;;;;;;;31.80;67.80;;;;;;5053752;28;19920;-68
2023/06/07 10:22:14;;;;;;;;;;;31.90;65.90;;;;;;5051512;28;20407;-68
2023/06/07 10:24:45;;;;;;;;;;;31.80;65.20;;;;;;5053692;28;19917;-68
2023/06/07 10:27:13;;;;;;;;;;;31.80;65.00;;;;;;5050282;28;19923;-68
2023/06/07 10:29:44;;;;;;;;;;;31.80;64.70;;;;;;5053389;28;19913;-68
2023/06/07 10:32:15;;;;;;;;;;;31.70;65.20;;;;;;5053186;28;19913;-68
2023/06/07 10:34:43;;;;;;;;;;;31.60;64.60;;;;;;5052441;28;19917;-68
2023/06/07 10:37:09;;;;;;;;;;;31.40;64.90;;;;;;5064717;28;19920;-68
2023/06/07 10:39:37;;;;;;;;;;;31.40;65.50;;;;;;5053737;28;19913;-67
2023/06/07 10:42:02;;;;;;;;;;;31.40;65.80;;;;;;5053143;28;19924;-67
2023/06/07 10:44:28;;;;;;;;;;;31.40;64.00;;;;;;5052322;28;20035;-67
2023/06/07 10:47:12;;;;;;;;;;;31.20;62.40;;;;;;5035014;28;19927;-68
2023/06/07 10:49:38;;;;;;;;;;;31.20;63.00;;;;;;5051735;28;19913;-68
2023/06/07 10:52:05;;;;;;;;;;;31.10;64.30;;;;;;5034770;28;19966;-68
2023/06/07 10:54:30;;;;;;;;;;;31.30;65.60;;;;;;5052846;28;20314;-67
2023/06/07 10:56:56;;;;;;;;;;;31.40;64.40;;;;;;5049055;28;20004;-67
2023/06/07 10:59:22;;;;;;;;;;;31.40;63.10;;;;;;5052038;28;19923;-67
2023/06/07 11:01:53;;;;;;;;;;;31.30;63.10;;;;;;5052513;28;20005;-67
2023/06/07 11:04:33;;;;;;;;;;;31.30;62.20;;;;;;5052040;28;20319;-67
2023/06/07 11:07:15;;;;;;;;;;;31.20;62.00;;;;;;5051515;28;19940;-67
2023/06/07 11:09:42;;;;;;;;;;;31.20;61.20;;;;;;5051617;28;19919;-67
2023/06/07 11:12:07;;;;;;;;;;;31.00;60.40;;;;;;5067738;28;19920;-67
2023/06/07 11:14:33;;;;;;;;;;;30.80;59.90;;;;;;5064894;28;19917;-68
2023/06/07 11:16:58;;;;;;;;;;;30.80;59.50;;;;;;5048921;28;19918;-68
2023/06/07 11:19:24;;;;;;;;;;;30.70;58.90;;;;;;5051448;28;20012;-68
2023/06/07 11:21:55;;;;;;;;;;;30.70;59.20;;;;;;5052003;28;20324;-68
2023/06/07 11:24:21;;;;;;;;;;;30.70;56.40;;;;;;5051676;28;19936;-67
2023/06/07 11:26:47;;;;;;;;;;;30.50;54.10;;;;;;5052371;28;19916;-68
2023/06/07 11:29:16;;;;;;;;;;;30.30;54.10;;;;;;5050431;28;19920;-67
2023/06/07 11:31:45;;;;;;;;;;;30.00;52.60;;;;;;5051855;28;19928;-67
2023/06/07 11:34:14;;;;;;;;;;;29.70;52.20;;;;;;5052400;28;19921;-68
2023/06/07 11:36:41;;;;;;;;;;;29.50;52.90;;;;;;5061977;28;19928;-67
2023/06/07 11:39:08;;;;;;;;;;;29.30;51.30;;;;;;5064264;28;19913;-67
2023/06/07 11:41:37;;;;;;;;;;;29.10;51.50;;;;;;5049878;28;19920;-67
2023/06/07 11:44:03;;;;;;;;;;;29.00;50.10;;;;;;5050155;28;20003;-68
2023/06/07 11:46:32;;;;;;;;;;;28.80;51.00;;;;;;5050617;28;19963;-68
2023/06/07 11:49:06;;;;;;;;;;;28.70;50.90;;;;;;5050502;28;20348;-68
2023/06/07 11:51:32;;;;;;;;;;;28.70;49.50;;;;;;5051578;28;19970;-68
2023/06/07 11:53:58;;;;;;;;;;;28.50;49.10;;;;;;5051760;28;19913;-67
2023/06/07 11:56:24;;;;;;;;;;;28.40;47.90;;;;;;5051722;28;19912;-68
2023/06/07 11:58:49;;;;;;;;;;;28.30;47.50;;;;;;5051918;28;20015;-68
2023/06/07 12:01:15;;;;;;;;;;;28.30;47.20;;;;;;5058584;28;19912;-67
2023/06/07 12:03:40;;;;;;;;;;;28.30;47.20;;;;;;5051529;28;19913;-68
2023/06/07 12:06:06;;;;;;;;;;;28.30;46.70;;;;;;5050588;28;20361;-68
2023/06/07 12:08:32;;;;;;;;;;;28.20;46.10;;;;;;5051587;28;20313;-67
2023/06/07 12:10:58;;;;;;;;;;;28.00;46.30;;;;;;5050050;28;19913;-68
2023/06/07 12:13:23;;;;;;;;;;;27.80;46.40;;;;;;5051640;28;19917;-67
2023/06/07 12:15:53;;;;;;;;;;;27.60;46.40;;;;;;5051184;28;19916;-67
2023/06/07 12:18:19;;;;;;;;;;;27.50;47.10;;;;;;5051484;28;19923;-67
2023/06/07 12:20:46;;;;;;;;;;;27.50;47.90;;;;;;5039685;28;19920;-68
2023/06/07 12:23:13;;;;;;;;;;;27.60;47.70;;;;;;5052397;28;19920;-67
2023/06/07 12:25:40;;;;;;;;;;;27.70;46.20;;;;;;5051102;28;19919;-67
2023/06/07 12:28:06;;;;;;;;;;;27.70;46.30;;;;;;5051388;28;19913;-67
2023/06/07 12:30:32;;;;;;;;;;;27.80;45.70;;;;;;5033084;28;20268;-69
2023/06/07 12:32:59;;;;;;;;;;;27.80;45.80;;;;;;5051629;28;19913;-67
2023/06/07 12:35:24;;;;;;;;;;;28.00;46.40;;;;;;5050373;28;19921;-68
2023/06/07 12:37:50;;;;;;;;;;;28.20;46.00;;;;;;5067332;28;20467;-67
2023/06/07 12:40:15;;;;;;;;;;;28.30;45.80;;;;;;5051049;28;20434;-68
2023/06/07 12:42:41;;;;;;;;;;;28.40;45.60;;;;;;5051068;28;19925;-67
2023/06/07 12:45:07;;;;;;;;;;;28.50;45.30;;;;;;5049127;28;20373;-67
2023/06/07 12:47:32;;;;;;;;;;;28.70;46.00;;;;;;5050735;28;20304;-67
2023/06/07 12:49:58;;;;;;;;;;;28.90;45.90;;;;;;5051108;28;19917;-67
2023/06/07 12:52:23;;;;;;;;;;;29.00;45.70;;;;;;5049926;28;19909;-67
2023/06/07 12:54:49;;;;;;;;;;;29.00;45.10;;;;;;5042412;28;19917;-67
2023/06/07 12:57:14;;;;;;;;;;;28.80;44.60;;;;;;5031898;28;19909;-68
2023/06/07 12:59:40;;;;;;;;;;;28.80;44.70;;;;;;5049855;28;20025;-68
2023/06/07 13:02:06;;;;;;;;;;;28.70;44.70;;;;;;5051117;28;19939;-68
2023/06/07 13:04:31;;;;;;;;;;;28.80;45.20;;;;;;5051564;28;19912;-68
2023/06/07 13:06:56;;;;;;;;;;;28.80;45.20;;;;;;5049906;28;19937;-69
2023/06/07 13:09:22;;;;;;;;;;;28.90;45.40;;;;;;5048629;28;19971;-69
2023/06/07 13:11:48;;;;;;;;;;;29.10;45.10;;;;;;5050870;28;19956;-68
2023/06/07 13:14:14;;;;;;;;;;;29.30;44.00;;;;;;5049211;28;19925;-67
2023/06/07 13:16:39;;;;;;;;;;;29.60;44.00;;;;;;5051042;28;20007;-68
2023/06/07 13:19:05;;;;;;;;;;;29.90;43.30;;;;;;5054394;28;19913;-68
2023/06/07 13:21:31;;;;;;;;;;;30.30;42.30;;;;;;5054500;28;19959;-68
2023/06/07 13:23:57;;;;;;;;;;;30.70;42.50;;;;;;5054028;28;19913;-68
2023/06/07 13:26:22;;;;;;;;;;;31.00;40.70;;;;;;5054470;28;19919;-68
2023/06/07 13:28:48;;;;;;;;;;;31.20;40.20;;;;;;5052276;28;19913;-68
2023/06/07 13:31:14;;;;;;;;;;;31.40;39.80;;;;;;5053368;28;19917;-68
2023/06/07 13:33:40;;;;;;;;;;;31.70;39.20;;;;;;5053678;28;19927;-68
2023/06/07 13:36:05;;;;;;;;;;;31.90;38.60;;;;;;5060415;28;19928;-68
2023/06/07 13:38:31;;;;;;;;;;;32.00;38.00;;;;;;5057340;28;20403;-68
2023/06/07 13:40:57;;;;;;;;;;;32.30;37.30;;;;;;5050047;28;19978;-68
2023/06/07 13:43:23;;;;;;;;;;;32.40;36.80;;;;;;5051178;28;20327;-69
2023/06/07 13:45:49;;;;;;;;;;;32.40;36.80;;;;;;5053921;28;19970;-69
2023/06/07 13:48:14;;;;;;;;;;;32.70;36.70;;;;;;5054506;28;19975;-69
2023/06/07 13:50:51;;;;;;;;;;;32.80;35.80;;;;;;5054052;28;20015;-69
2023/06/07 13:53:19;;;;;;;;;;;32.80;35.50;;;;;;5054122;28;20349;-69
2023/06/07 13:55:47;;;;;;;;;;;32.90;35.50;;;;;;5050789;28;20002;-69
2023/06/07 13:58:15;;;;;;;;;;;33.00;34.70;;;;;;5034266;28;20348;-68
2023/06/07 14:00:41;;;;;;;;;;;33.10;34.00;;;;;;5033714;28;19917;-68
2023/06/07 14:03:07;;;;;;;;;;;33.20;34.50;;;;;;5049972;28;20450;-68
2023/06/07 14:05:32;;;;;;;;;;;33.20;33.70;;;;;;5053491;28;19924;-69
2023/06/07 14:07:58;;;;;;;;;;;33.20;33.80;;;;;;5052285;28;20366;-66
2023/06/07 14:10:24;;;;;;;;;;;33.10;33.40;;;;;;5053397;28;20000;-66
2023/06/07 14:12:50;;;;;;;;;;;33.00;33.80;;;;;;5050838;28;19921;-66